INFORMACIÓN METAR y TAF
METAR FOR EFIV
ADDS - METARS form results

(0838 UTC 24 April 2019)
Data provider http://aviationweather.gov/metar/data/
 
METAR text: EFIV 240820Z AUTO VRB01KT CAVOK 09/03 Q1022
Conditions at: EFIV (IVALO , FI) observed 0820 UTC 24 April 2019
Temperature: 9.0°C (48°F)
Dewpoint: 3.0°C (37°F) [RH = 66%]
Pressure (altimeter): 30.18 inches Hg (1022.0 mb)
Winds: variable direction winds at 1 MPH (1 knots; 0.5 m/s)
Visibility: 6 or more miles (10+ km)
Ceiling: ceiling and visibility are OK
Clouds: unknown
Weather: no significant weather observed at this time

METAR text: EFIV 240750Z AUTO VRB01KT 9999 SCT032 BKN055 09/03 Q1022
Conditions at: EFIV (IVALO , FI) observed 0750 UTC 24 April 2019
Temperature: 9.0°C (48°F)
Dewpoint: 3.0°C (37°F) [RH = 66%]
Pressure (altimeter): 30.18 inches Hg (1022.0 mb)
Winds: variable direction winds at 1 MPH (1 knots; 0.5 m/s)
Visibility: 6 or more miles (10+ km)
Ceiling: 5500 feet AGL
Clouds: scattered clouds at 3200 feet AGL
broken clouds at 5500 feet AGL
Weather: no significant weather observed at this time

Forecast for: EFIV (IVALO , FI)
Text: TAF EFIV 240535Z 2406/2411 24004KT 9999 BKN034
Forecast period: 0600 to 1100 UTC 24 April 2019
Forecast type: FROM: standard forecast or significant change
Winds: from the WSW (240 degrees) at 5 MPH (4 knots; 2.1 m/s)
Visibility: 6 or more miles 10+ km)
Ceiling: 3400 feet AGL
Clouds: broken clouds at 3400 feet AGL
Weather: no significant weather forecast for this period

 MAPA DE AEROPUERTO

 INFORMACIÓN DE PISTA
Pista 04 Longitud 8199 ft Ancho 148 ft
Elevación 480 ft Umbral desplazado 0 ft Rumbo de pista 47
Pista 22 Longitud 8199 ft Ancho 148 ft
Elevación 463 ft Umbral desplazado 0 ft Rumbo de pista 227
Pista 08 Longitud 2625 ft Ancho 148 ft
Elevación 475 ft Umbral desplazado 0 ft Rumbo de pista 92
Pista 26 Longitud 2625 ft Ancho 148 ft
Elevación 468 ft Umbral desplazado 0 ft Rumbo de pista 272

 FRECUANCIAS DEL AEROPUERTO
Tipo ATIS Nombre ATIS Frecuencia 123.2 MHZ
Tipo TWR Nombre TWR Frecuencia 118 MHZ

 RADIO AYUDAS DEL AEROPUERTO
Tipo NDB Nombre Akujarvi Frecuencia 432 KHZ



Powered by Virtual Airlines Manager [v2.6.2]